VEJS/IXW METAR and TAF weather

Enter ICAO airport designator
Station Type Date Time Source
VEJS METAR 2020/02/16 12:00 UTC NOAA

VEJS 161200Z 00000KT 5000 HZ NSC 27/12 Q1013


Station Type Date Time Source
VEJS Decoded METAR 2020/02/16 12:00 UTC NOAA

Jamshedpur, India (VEJS) 22-49N 086-11E 142M
Feb 16, 2020 - 07:00 AM EST / 2020.02.16 1200 UTC
Wind: Calm:0
Visibility: 3 mile(s):0
Weather: haze
Temperature: 80 F (27 C)
Dew Point: 53 F (12 C)
Relative Humidity: 39%
Pressure (altimeter): 29.91 in. Hg (1013 hPa)
ob: VEJS 161200Z 00000KT 5000 HZ NSC 27/12 Q1013
cycle: 12

Station Type Date Time Source
VEJS TAF 2009/11/01 09:00 UTC NOAA

TAF VEJS 010900Z 0112/0121 36004KT 2500 HZ FEW020 SCT025 SCT100
BECMG 0116/0118 00000KT 2000 HZ FEW018 SCT
BECMG 0119/0121 00000KT 1600 BR

Example: see airport list